Time;durP1;ratioP1;P1;durP2;ratioP2;P2;SDS_P1;SDS_P2;PMS_P1;PMS_P2;Temp;Humidity;BMP_temperature;BMP_pressure;BME280_temperature;BME280_humidity;BME280_pressure;Samples;Min_cycle;Max_cycle;Signal;HPM_P1;HPM_P2
2022/06/23 00:01:13;;;;;;;35.17;31.93;;;18.10;99.90;;;17.15;100.00;97632.13;5016723;28;20467;-82
2022/06/23 00:03:42;;;;;;;35.73;32.03;;;18.00;99.90;;;17.20;100.00;97637.59;5022605;27;20466;-80
2022/06/23 00:06:36;;;;;;;35.33;32.03;;;18.00;99.90;;;17.14;100.00;97641.41;5025500;27;20477;-81
2022/06/23 00:09:34;;;;;;;36.47;32.53;;;17.90;99.90;;;17.21;100.00;97646.63;5038788;27;20473;-80
2022/06/23 00:12:05;;;;;;;34.57;31.27;;;18.00;99.90;;;17.17;100.00;97643.59;5041673;27;20457;-81
2022/06/23 00:14:33;;;;;;;35.87;32.23;;;18.00;99.90;;;17.13;100.00;97634.31;5025857;27;20463;-81
2022/06/23 00:17:17;;;;;;;32.57;29.57;;;18.00;99.90;;;17.12;100.00;97633.47;5033961;28;20542;-81
2022/06/23 00:19:44;;;;;;;31.97;28.80;;;18.00;99.90;;;17.08;100.00;97628.84;5024543;28;20496;-82
2022/06/23 00:22:15;;;;;;;34.53;31.13;;;17.90;99.90;;;17.05;100.00;97643.84;5025582;27;21166;-81
2022/06/23 00:24:43;;;;;;;34.20;30.83;;;17.90;99.90;;;17.16;100.00;97639.22;5019404;28;20481;-81
2022/06/23 00:27:16;;;;;;;33.30;29.70;;;17.90;99.90;;;17.11;100.00;97648.22;5025329;27;20501;-81
2022/06/23 00:29:46;;;;;;;34.07;30.47;;;17.90;99.90;;;17.05;100.00;97637.53;5022907;27;20471;-81
2022/06/23 00:32:15;;;;;;;35.77;32.20;;;17.90;99.90;;;16.97;100.00;97634.22;5046705;28;20464;-80
2022/06/23 00:34:45;;;;;;;34.77;31.27;;;17.80;99.90;;;16.83;100.00;97613.97;5033163;27;20462;-81
2022/06/23 00:37:17;;;;;;;34.83;31.50;;;17.80;99.90;;;16.94;100.00;97626.59;5021963;27;20458;-81
2022/06/23 00:39:53;;;;;;;33.10;29.90;;;17.80;99.90;;;17.07;100.00;97629.94;5025547;28;20459;-80
2022/06/23 00:42:24;;;;;;;34.07;30.57;;;17.90;99.90;;;16.97;100.00;97638.84;5017649;27;20598;-80
2022/06/23 00:44:58;;;;;;;34.70;31.30;;;17.80;99.90;;;16.81;100.00;97633.31;5021027;28;20462;-81
2022/06/23 00:47:36;;;;;;;35.67;32.03;;;17.80;99.90;;;16.85;100.00;97634.47;5020038;27;20474;-81
2022/06/23 00:50:24;;;;;;;32.27;29.17;;;17.70;99.90;;;16.90;100.00;97650.00;5022270;27;20490;-81
2022/06/23 00:53:01;;;;;;;32.33;29.27;;;17.70;99.90;;;16.85;100.00;97650.00;5014555;27;20483;-81
2022/06/23 00:55:41;;;;;;;34.30;30.90;;;17.70;99.90;;;16.94;100.00;97653.03;5031593;28;20902;-81
2022/06/23 00:58:27;;;;;;;34.87;30.90;;;17.70;99.90;;;17.08;100.00;97653.41;5019966;28;20458;-80
2022/06/23 01:01:00;;;;;;;31.50;28.50;;;17.80;99.90;;;17.10;100.00;97657.50;5022738;28;20467;-81
2022/06/23 01:03:34;;;;;;;32.47;29.63;;;17.90;99.90;;;17.01;100.00;97652.81;5020639;28;20455;-81
2022/06/23 01:06:12;;;;;;;35.60;32.50;;;17.80;99.90;;;17.30;100.00;97655.94;5020208;27;20530;-80
2022/06/23 01:08:49;;;;;;;33.60;30.40;;;18.00;99.90;;;17.16;100.00;97650.16;5019144;28;21114;-80
2022/06/23 01:11:26;;;;;;;35.17;31.97;;;18.00;99.90;;;17.24;100.00;97649.66;5027506;27;20462;-81
2022/06/23 01:14:11;;;;;;;37.70;34.23;;;18.00;99.90;;;17.17;100.00;97657.25;5015709;27;20470;-81
2022/06/23 01:16:45;;;;;;;38.33;34.93;;;18.00;99.90;;;17.26;100.00;97650.19;5018061;27;20526;-80
2022/06/23 01:19:57;;;;;;;36.77;33.67;;;18.00;99.90;;;17.27;100.00;97651.84;5034561;27;21865;-80
2022/06/23 01:22:45;;;;;;;35.00;31.77;;;18.10;99.90;;;17.25;100.00;97651.28;5018894;27;20491;-80
2022/06/23 01:25:35;;;;;;;35.37;32.27;;;18.00;99.90;;;17.00;100.00;97657.47;5019213;28;21218;-81
2022/06/23 01:28:11;;;;;;;33.50;30.57;;;17.90;99.90;;;16.81;100.00;97662.53;5021994;28;20477;-81
2022/06/23 01:30:46;;;;;;;36.13;32.67;;;17.70;99.90;;;16.76;100.00;97670.69;5019803;28;20458;-80
2022/06/23 01:33:21;;;;;;;37.53;34.23;;;17.60;99.90;;;16.83;100.00;97657.63;5031911;28;20556;-79
2022/06/23 01:35:59;;;;;;;38.27;34.97;;;17.70;99.90;;;17.01;100.00;97658.28;5018604;28;20467;-79
2022/06/23 01:38:38;;;;;;;38.07;34.53;;;17.70;99.90;;;17.09;100.00;97658.59;5023157;28;20469;-79
2022/06/23 01:41:13;;;;;;;37.13;33.80;;;17.80;99.90;;;17.12;100.00;97649.06;5018235;28;20458;-80
2022/06/23 01:43:48;;;;;;;40.00;36.37;;;17.90;99.90;;;17.17;100.00;97657.25;5015426;28;20452;-80
2022/06/23 01:46:21;;;;;;;37.27;33.57;;;18.00;99.90;;;17.04;100.00;97653.13;5020915;28;21353;-80
2022/06/23 01:48:55;;;;;;;35.60;32.30;;;17.90;99.90;;;16.90;100.00;97650.00;5022145;27;20465;-80
2022/06/23 01:51:27;;;;;;;36.80;33.60;;;17.80;99.90;;;16.80;100.00;97658.16;5032411;27;20463;-81
2022/06/23 01:54:12;;;;;;;37.07;33.57;;;17.70;99.90;;;16.74;100.00;97659.19;5018657;28;20460;-84
2022/06/23 01:56:52;;;;;;;39.57;35.60;;;17.60;99.90;;;17.10;100.00;97654.75;5036853;27;22468;-81
2022/06/23 01:59:49;;;;;;;40.23;36.03;;;17.80;99.90;;;17.09;100.00;97655.06;5023637;28;20454;-82
2022/06/23 02:02:34;;;;;;;39.70;36.00;;;17.90;99.90;;;16.96;100.00;97623.56;5041915;27;20477;-83
2022/06/23 02:05:13;;;;;;;37.30;33.50;;;18.00;99.90;;;17.05;100.00;97659.38;5015343;28;20808;-82
2022/06/23 02:07:48;;;;;;;37.03;33.73;;;17.90;99.90;;;16.89;100.00;97662.00;5024884;28;20485;-81
2022/06/23 02:10:21;;;;;;;35.67;32.13;;;17.80;99.90;;;16.79;100.00;97651.88;5026940;28;20466;-84
2022/06/23 02:12:57;;;;;;;36.97;33.30;;;17.70;99.90;;;16.46;100.00;97609.44;5021067;28;20446;-82
2022/06/23 02:15:31;;;;;;;36.30;32.90;;;17.60;99.90;;;16.87;100.00;97664.19;5023652;28;20462;-81
2022/06/23 02:18:07;;;;;;;38.13;34.10;;;17.60;99.90;;;16.88;100.00;97654.91;5023687;28;21050;-81
2022/06/23 02:20:43;;;;;;;37.30;33.90;;;17.70;99.90;;;16.67;100.00;97665.72;5027128;28;20454;-82
2022/06/23 02:23:23;;;;;;;35.83;32.63;;;17.60;99.90;;;16.61;100.00;97671.41;5032291;28;20558;-82
2022/06/23 02:25:57;;;;;;;37.63;34.07;;;17.40;99.90;;;16.60;100.00;97670.56;5035594;28;20451;-84
2022/06/23 02:28:36;;;;;;;36.83;33.30;;;17.40;99.90;;;16.80;100.00;97671.81;5020227;28;20470;-83
2022/06/23 02:31:15;;;;;;;35.83;32.13;;;17.60;99.90;;;16.88;100.00;97671.28;5012767;28;21000;-82
2022/06/23 02:33:53;;;;;;;35.93;32.63;;;17.60;99.90;;;16.78;100.00;97665.78;5022270;28;20838;-81
2022/06/23 02:36:35;;;;;;;34.90;31.90;;;17.60;99.90;;;16.55;100.00;97673.28;5020997;28;20461;-81
2022/06/23 02:39:06;;;;;;;36.50;33.03;;;17.50;99.90;;;16.40;100.00;97661.19;5037015;27;20465;-81
2022/06/23 02:41:40;;;;;;;34.07;30.97;;;17.30;99.90;;;16.37;100.00;97666.34;5022058;28;20562;-81
2022/06/23 02:44:30;;;;;;;35.80;32.30;;;17.20;99.90;;;16.45;100.00;97667.75;5014085;28;20545;-81
2022/06/23 02:47:20;;;;;;;35.43;31.90;;;17.20;99.90;;;16.36;100.00;97649.16;5020965;28;20582;-82
2022/06/23 02:50:20;;;;;;;36.93;33.43;;;17.40;99.90;;;16.45;100.00;97676.75;5036925;28;20466;-81
2022/06/23 02:53:54;;;;;;;37.50;34.10;;;17.30;99.90;;;16.51;100.00;97683.06;5025454;28;20456;-81
2022/06/23 02:56:38;;;;;;;37.43;33.93;;;17.30;99.90;;;16.52;100.00;97673.81;5069608;28;21008;-82
2022/06/23 02:59:11;;;;;;;36.80;33.37;;;17.40;99.90;;;16.52;100.00;97685.53;5022603;27;20511;-82
2022/06/23 03:01:46;;;;;;;37.80;34.27;;;17.30;99.90;;;16.54;100.00;97683.38;5027023;28;20460;-84
2022/06/23 03:04:23;;;;;;;38.13;34.53;;;17.40;99.90;;;16.53;100.00;97681.75;5028310;28;20464;-82
2022/06/23 03:07:00;;;;;;;36.93;33.43;;;17.40;99.90;;;16.53;100.00;97681.75;5044423;27;20576;-81
2022/06/23 03:09:37;;;;;;;41.43;37.37;;;17.40;99.90;;;16.49;100.00;97674.34;5044664;27;20538;-82
2022/06/23 03:12:12;;;;;;;38.40;34.90;;;17.40;99.90;;;16.42;100.00;97667.19;5025588;28;20458;-82
2022/06/23 03:14:49;;;;;;;38.20;34.70;;;17.40;99.90;;;16.29;100.00;97641.22;5021732;27;20523;-80
2022/06/23 03:17:24;;;;;;;38.60;35.13;;;17.40;99.90;;;16.42;100.00;97674.56;5027631;27;20509;-81
2022/06/23 03:20:04;;;;;;;37.60;34.10;;;17.30;99.90;;;16.36;100.00;97668.25;5023876;27;20467;-81
2022/06/23 03:22:36;;;;;;;37.90;34.33;;;17.30;99.90;;;16.42;100.00;97678.09;5040964;27;20449;-80
2022/06/23 03:25:13;;;;;;;37.97;34.53;;;17.30;99.90;;;16.41;100.00;97676.47;5041315;28;20458;-81
2022/06/23 03:27:49;;;;;;;37.23;33.80;;;17.30;99.90;;;16.42;100.00;97685.47;5041278;28;20834;-81
2022/06/23 03:30:23;;;;;;;35.10;32.00;;;17.30;99.90;;;16.35;100.00;97685.69;5039004;28;20466;-81
2022/06/23 03:32:55;;;;;;;36.90;33.50;;;17.30;99.90;;;16.36;100.00;97694.69;5047472;27;20466;-80
2022/06/23 03:35:28;;;;;;;34.13;31.13;;;17.20;99.90;;;16.34;100.00;97697.69;5027999;28;20449;-78
2022/06/23 03:38:06;;;;;;;35.73;32.60;;;17.20;99.90;;;16.27;100.00;97695.19;5026766;28;20461;-80
2022/06/23 03:43:40;;;;;;;32.77;29.80;;;17.20;99.90;;;16.29;100.00;97700.34;5039064;27;20493;-82
2022/06/23 03:46:24;;;;;;;32.43;29.73;;;17.20;99.90;;;16.28;100.00;97699.53;5033266;28;20523;-81
2022/06/23 03:48:56;;;;;;;33.97;31.07;;;17.20;99.90;;;16.28;100.00;97701.44;5028179;28;20487;-81
2022/06/23 03:51:29;;;;;;;33.23;30.47;;;17.20;99.90;;;16.25;100.00;97682.88;5032931;28;22083;-82
2022/06/23 03:54:04;;;;;;;31.57;28.77;;;17.20;99.90;;;16.33;100.00;97709.66;5024542;27;20878;-82
2022/06/23 03:56:38;;;;;;;34.57;31.47;;;17.20;99.90;;;16.45;100.00;97714.09;5024938;27;20460;-80
2022/06/23 03:59:15;;;;;;;32.50;29.60;;;17.30;99.90;;;16.41;100.00;97709.16;5023955;27;20466;-83
2022/06/23 04:01:50;;;;;;;33.53;30.40;;;17.30;99.90;;;16.41;100.00;97711.09;5024126;27;20453;-81
2022/06/23 04:04:21;;;;;;;34.03;30.87;;;17.30;99.90;;;16.49;100.00;97698.88;5020266;28;21015;-80
2022/06/23 04:06:51;;;;;;;32.57;29.80;;;17.40;99.90;;;16.82;100.00;97716.00;5028374;27;20938;-81
2022/06/23 04:09:23;;;;;;;33.17;30.50;;;17.70;99.90;;;17.33;100.00;97714.63;5025408;27;20461;-81
2022/06/23 04:12:04;;;;;;;31.27;28.47;;;18.30;99.90;;;17.88;100.00;97712.31;5025762;27;20469;-82
2022/06/23 04:14:44;;;;;;;29.23;26.67;;;18.80;99.90;;;18.26;97.19;97698.44;5022249;27;20466;-80
2022/06/23 04:17:20;;;;;;;28.03;25.73;;;19.40;99.90;;;18.68;93.88;97700.06;5021832;28;20475;-79
2022/06/23 04:19:51;;;;;;;27.57;25.27;;;19.90;99.20;;;18.61;92.42;97685.03;5022348;28;20553;-80
2022/06/23 04:22:27;;;;;;;28.00;25.70;;;20.00;97.00;;;19.25;89.56;97710.88;5023711;27;20454;-83
2022/06/23 04:25:01;;;;;;;24.60;22.70;;;20.50;96.30;;;19.66;86.21;97700.84;5021486;28;20457;-80
2022/06/23 04:27:34;;;;;;;25.73;23.53;;;21.00;93.30;;;19.68;85.41;97709.59;5015278;28;20570;-81
2022/06/23 04:30:01;;;;;;;25.60;23.50;;;21.20;92.40;;;19.76;84.50;97703.50;5021390;28;20469;-80
2022/06/23 04:32:33;;;;;;;25.00;22.90;;;21.30;92.00;;;20.05;83.56;97713.75;5031397;27;20540;-81
2022/06/23 04:35:12;;;;;;;25.20;23.10;;;21.40;92.00;;;20.87;81.61;97722.44;5018209;28;20469;-79
2022/06/23 04:37:50;;;;;;;24.90;22.37;;;21.90;91.80;;;21.62;74.90;97681.69;5033838;28;21602;-78
2022/06/23 04:40:24;;;;;;;22.50;20.60;;;22.80;90.00;;;22.64;71.21;97707.91;5023659;27;20465;-79
2022/06/23 04:42:58;;;;;;;23.60;21.60;;;23.50;88.20;;;21.66;74.18;97731.44;5024700;28;20468;-80
2022/06/23 04:45:49;;;;;;;23.53;21.63;;;23.20;87.80;;;22.54;70.42;97732.06;5019217;28;20574;-79
2022/06/23 04:48:23;;;;;;;22.20;20.40;;;23.70;87.60;;;22.25;72.13;97720.13;5026342;27;20474;-76
2022/06/23 04:50:57;;;;;;;21.70;20.00;;;23.60;86.80;;;22.90;69.99;97721.22;5037185;27;22869;-79
2022/06/23 04:53:48;;;;;;;22.97;20.90;;;23.90;86.60;;;23.39;67.52;97731.09;5019459;28;20450;-81
2022/06/23 04:56:29;;;;;;;22.07;20.37;;;24.80;84.30;;;22.98;67.53;97729.94;5017254;28;20448;-73
2022/06/23 04:59:02;;;;;;;24.60;22.57;;;24.80;83.40;;;22.06;70.46;97739.38;5034337;28;20452;-74
2022/06/23 05:01:39;;;;;;;22.20;20.50;;;24.10;83.50;;;21.60;73.27;97738.06;5037972;27;20473;-73
2022/06/23 05:04:15;;;;;;;24.17;22.07;;;23.10;85.90;;;21.39;73.82;97738.31;5031580;27;20448;-73
2022/06/23 05:06:46;;;;;;;22.97;21.10;;;22.50;87.20;;;20.90;75.92;97749.31;5020483;27;20525;-78
2022/06/23 05:09:22;;;;;;;22.53;20.77;;;22.10;88.70;;;20.48;78.58;97740.59;5018607;28;20482;-75
2022/06/23 05:11:53;;;;;;;23.57;21.67;;;21.60;90.10;;;19.92;81.15;97748.13;5037213;27;20804;-77
2022/06/23 05:14:30;;;;;;;24.70;22.60;;;21.20;90.90;;;19.79;82.40;97741.31;5018445;28;20483;-77
2022/06/23 05:17:06;;;;;;;35.67;27.07;;;20.80;92.20;;;19.93;82.55;97741.53;5016294;27;20461;-76
2022/06/23 05:19:37;;;;;;;23.33;21.47;;;20.90;92.60;;;21.07;77.91;97737.84;5018794;27;20909;-76
2022/06/23 05:22:20;;;;;;;25.47;23.30;;;21.70;91.20;;;22.07;72.48;97730.84;5039989;27;20979;-74
2022/06/23 05:24:49;;;;;;;22.60;20.60;;;23.20;88.60;;;22.93;68.89;97741.84;5027975;28;20446;-75
2022/06/23 05:27:24;;;;;;;23.50;21.50;;;24.30;85.50;;;22.98;69.07;97749.22;5016565;28;20465;-75
2022/06/23 05:30:02;;;;;;;22.77;20.80;;;24.50;84.80;;;23.72;65.33;97741.97;5026162;27;20476;-74
2022/06/23 05:32:42;;;;;;;22.90;21.07;;;24.90;83.30;;;23.55;65.05;97735.16;5016035;28;20955;-77
2022/06/23 05:35:20;;;;;;;22.50;20.73;;;25.30;82.10;;;23.47;65.83;97744.13;5017769;28;20462;-76
2022/06/23 05:37:53;;;;;;;22.43;20.60;;;25.20;81.80;;;24.30;63.40;97756.97;5017651;28;20497;-74
2022/06/23 05:40:28;;;;;;;22.60;20.70;;;25.40;81.30;;;24.54;62.68;97755.84;5024635;28;20466;-74
2022/06/23 05:43:00;;;;;;;22.07;20.17;;;25.90;80.10;;;24.48;62.41;97762.59;5020431;28;20467;-75
2022/06/23 05:45:32;;;;;;;22.43;20.67;;;25.60;80.30;;;24.28;63.19;97756.47;5016568;28;20956;-74
2022/06/23 05:48:05;;;;;;;22.60;20.70;;;25.90;79.70;;;24.70;61.32;97744.41;5022002;28;20504;-73
2022/06/23 05:50:43;;;;;;;23.40;21.33;;;26.00;79.50;;;24.32;62.74;97765.75;5020599;28;20963;-75
2022/06/23 05:53:19;;;;;;;22.60;20.53;;;25.80;79.50;;;24.54;62.52;97755.84;5018523;28;20496;-75
2022/06/23 05:55:54;;;;;;;21.73;19.67;;;25.90;79.60;;;25.23;60.23;97758.50;5041071;27;20466;-77
2022/06/23 05:58:30;;;;;;;22.60;20.60;;;26.20;79.00;;;25.51;59.18;97766.63;5017608;28;21012;-74
2022/06/23 06:01:05;;;;;;;22.27;20.47;;;26.40;78.40;;;25.29;59.26;97763.59;5020108;28;20533;-78
2022/06/23 06:03:41;;;;;;;21.13;19.37;;;26.60;77.60;;;25.51;59.36;97752.78;5023673;27;20450;-76
2022/06/23 06:06:09;;;;;;;22.27;20.50;;;26.80;76.70;;;24.69;61.85;97753.81;5011663;28;20761;-75
2022/06/23 06:11:29;;;;;;;19.10;17.70;;;26.40;77.60;;;25.57;59.22;97773.66;5033126;27;20457;-78
2022/06/23 06:13:57;;;;;;;19.13;17.33;;;26.40;77.20;;;25.34;58.69;97773.69;5016905;28;20466;-73
2022/06/23 06:16:24;;;;;;;17.53;16.03;;;26.80;75.60;;;25.83;57.76;97765.41;5018384;27;20965;-81
2022/06/23 06:18:53;;;;;;;18.77;17.00;;;27.00;75.40;;;25.69;58.50;97767.50;5016829;28;20968;-79
2022/06/23 06:21:24;;;;;;;18.83;17.23;;;27.00;75.20;;;26.12;56.66;97777.00;5039182;27;20449;-77
2022/06/23 06:24:01;;;;;;;15.73;14.60;;;27.50;73.90;;;25.92;56.74;97773.72;5013575;28;20461;-81
2022/06/23 06:26:33;;;;;;;14.80;13.60;;;27.30;73.50;;;25.60;57.43;97770.25;5024463;28;20462;-78
2022/06/23 06:29:15;;;;;;;16.30;15.07;;;27.20;73.20;;;25.86;56.53;97769.50;5014803;28;20473;-78
2022/06/23 06:31:46;;;;;;;15.53;13.93;;;27.40;72.70;;;24.39;60.78;97767.25;5022199;28;20453;-77
2022/06/23 06:34:18;;;;;;;14.57;13.17;;;26.10;74.30;;;23.48;63.46;97756.78;5024388;28;21015;-76
2022/06/23 06:36:50;;;;;;;16.13;14.53;;;25.40;76.10;;;22.72;66.43;97760.66;5017803;28;20465;-75
2022/06/23 06:39:22;;;;;;;12.63;11.40;;;24.30;78.70;;;22.25;68.76;97764.16;5013074;28;20896;-78
2022/06/23 06:41:57;;;;;;;12.37;10.07;;;23.50;81.90;;;22.19;68.21;97763.41;5019003;28;20475;-76
2022/06/23 06:44:24;;;;;;;13.07;11.53;;;23.20;82.20;;;22.35;68.21;97761.22;5013029;28;20465;-77
2022/06/23 06:46:52;;;;;;;14.13;12.70;;;23.20;83.10;;;22.13;69.05;97717.00;5016254;28;20570;-75
2022/06/23 06:49:22;;;;;;;12.60;11.60;;;23.20;84.10;;;22.46;67.23;97725.28;5014726;28;21031;-75
2022/06/23 06:51:52;;;;;;;13.00;11.63;;;23.40;83.50;;;22.87;66.11;97774.16;5027915;28;20451;-76
2022/06/23 06:54:24;;;;;;;12.37;10.97;;;23.70;82.90;;;22.09;68.17;97769.03;5018443;28;20453;-75
2022/06/23 06:56:57;;;;;;;14.60;10.60;;;23.20;82.70;;;22.54;67.51;97767.84;5023209;28;20538;-75
2022/06/23 06:59:31;;;;;;;13.10;11.90;;;23.30;83.40;;;22.80;66.70;97761.91;5021338;28;20461;-76
2022/06/23 07:02:02;;;;;;;13.10;10.70;;;23.50;83.40;;;22.84;66.39;97747.25;5012265;28;20448;-79
2022/06/23 07:04:34;;;;;;;11.17;9.60;;;23.70;83.10;;;23.15;64.86;97771.47;5025139;28;20458;-75
2022/06/23 07:07:06;;;;;;;9.50;8.50;;;23.80;82.30;;;23.10;64.90;97766.03;5025057;28;20486;-78
2022/06/23 07:09:42;;;;;;;7.17;6.47;;;23.90;81.90;;;23.19;63.29;97764.22;5023550;28;20477;-76
2022/06/23 07:12:19;;;;;;;8.17;6.93;;;24.00;80.80;;;23.35;61.96;97730.88;5016092;28;21010;-81
2022/06/23 07:14:53;;;;;;;8.13;7.50;;;24.30;80.10;;;22.89;64.25;97760.91;5018172;28;20450;-78
2022/06/23 07:17:30;;;;;;;10.67;6.43;;;24.00;80.50;;;22.81;63.71;97769.06;5020964;28;20459;-81
2022/06/23 07:20:03;;;;;;;8.87;5.93;;;23.80;80.00;;;22.93;63.75;97761.13;5013846;28;20467;-83
2022/06/23 07:22:37;;;;;;;7.73;5.33;;;23.80;80.10;;;23.03;62.68;97760.91;5019584;28;20451;-75
2022/06/23 07:25:12;;;;;;;7.70;5.83;;;23.80;79.60;;;22.80;62.99;97759.97;5034829;27;20454;-75
2022/06/23 07:27:47;;;;;;;9.00;6.50;;;23.70;79.50;;;22.84;63.74;97758.25;5019938;28;20468;-77
2022/06/23 07:30:19;;;;;;;7.57;6.73;;;23.70;80.40;;;22.97;63.02;97766.81;5020233;28;20553;-75
2022/06/23 07:32:51;;;;;;;8.03;5.97;;;23.80;80.00;;;22.90;62.71;97751.53;5020751;28;20464;-79
2022/06/23 07:35:31;;;;;;;11.00;6.80;;;23.70;79.60;;;22.83;63.89;97755.78;5021324;28;20462;-76
2022/06/23 07:38:09;;;;;;;10.20;5.87;;;23.90;80.30;;;23.02;62.45;97752.97;5050946;28;20961;-76
2022/06/23 07:40:44;;;;;;;10.57;5.30;;;23.80;79.80;;;23.32;60.63;97754.34;5022124;28;20472;-77
2022/06/23 07:43:21;;;;;;;7.70;5.47;;;24.00;78.50;;;23.56;60.50;97761.59;5021241;28;21011;-78
2022/06/23 07:45:55;;;;;;;11.30;6.47;;;24.20;78.40;;;23.65;61.09;97755.34;5015135;28;20464;-77
2022/06/23 07:48:24;;;;;;;6.93;5.77;;;24.30;79.00;;;23.34;60.76;97759.56;5038645;27;20470;-79
2022/06/23 07:50:51;;;;;;;8.70;5.07;;;24.20;77.90;;;23.46;59.65;97751.59;5022771;28;21183;-81
2022/06/23 07:53:23;;;;;;;5.10;4.27;;;24.30;77.10;;;23.82;58.43;97757.47;5022778;28;20472;-77
2022/06/23 07:55:51;;;;;;;6.00;4.53;;;24.50;76.60;;;24.04;58.34;97759.50;5033430;27;20450;-77
2022/06/23 07:58:24;;;;;;;5.97;4.73;;;24.70;76.20;;;24.09;57.11;97753.06;5037831;27;20825;-77
2022/06/23 08:00:57;;;;;;;12.17;5.50;;;24.90;75.40;;;23.75;58.79;97758.72;5022618;27;21165;-78
2022/06/23 08:03:33;;;;;;;6.70;5.47;;;24.60;75.90;;;23.67;59.71;97756.69;5023297;27;20469;-78
2022/06/23 08:06:06;;;;;;;5.67;4.83;;;24.40;76.70;;;23.66;58.18;97757.81;5040175;27;20877;-80
2022/06/23 08:08:38;;;;;;;6.50;4.60;;;24.50;75.60;;;23.94;57.56;97760.53;5024570;27;20483;-76
2022/06/23 08:14:05;;;;;;;5.50;4.10;;;25.00;74.70;;;24.65;55.96;97744.56;5039827;27;20471;-78
2022/06/23 08:16:50;;;;;;;6.53;4.83;;;25.30;74.30;;;24.62;56.11;97746.00;5021343;28;20468;-76
2022/06/23 08:19:31;;;;;;;4.47;4.07;;;25.40;74.20;;;24.61;56.48;97745.16;5039050;27;20696;-76
2022/06/23 08:22:08;;;;;;;11.13;5.50;;;25.40;74.40;;;24.66;57.04;97749.75;5023363;27;20484;-79
2022/06/23 08:24:38;;;;;;;5.90;4.80;;;25.50;74.40;;;24.27;56.99;97746.53;5034705;27;20459;-76
2022/06/23 08:27:10;;;;;;;7.73;5.60;;;25.20;74.00;;;24.54;56.75;97747.56;5021880;28;20451;-75
2022/06/23 08:29:43;;;;;;;6.00;5.00;;;25.20;74.30;;;24.84;56.30;97745.19;5021533;28;20475;-78
2022/06/23 08:32:11;;;;;;;5.57;4.00;;;25.50;73.90;;;24.73;56.18;97741.84;5033919;28;20447;-79
2022/06/23 08:34:46;;;;;;;7.60;4.87;;;25.40;73.60;;;24.77;55.64;97742.03;5024955;28;20467;-76
2022/06/23 08:37:20;;;;;;;4.50;3.80;;;25.50;73.20;;;24.97;54.00;97734.34;5026762;27;20467;-78
2022/06/23 08:39:55;;;;;;;5.37;3.93;;;25.70;71.70;;;25.34;53.67;97743.28;5040803;27;20947;-77
2022/06/23 08:42:30;;;;;;;5.30;3.70;;;25.90;71.90;;;25.12;53.66;97736.69;5024619;28;20463;-84
2022/06/23 08:45:14;;;;;;;7.00;3.87;;;25.90;71.30;;;25.37;53.54;97742.63;5028909;28;20501;-77
2022/06/23 08:47:50;;;;;;;4.73;3.87;;;26.00;71.30;;;24.87;54.73;97740.94;5036302;27;20509;-80
2022/06/23 08:50:24;;;;;;;4.47;3.40;;;25.80;71.40;;;25.28;53.20;97733.50;5029400;28;20998;-78
2022/06/23 08:52:59;;;;;;;5.17;3.37;;;26.00;71.00;;;25.15;52.93;97725.00;5034142;27;20555;-79
2022/06/23 08:55:35;;;;;;;5.90;3.20;;;25.90;69.90;;;24.96;52.70;97727.19;5032889;28;20466;-79
2022/06/23 08:58:09;;;;;;;4.70;3.60;;;25.80;69.40;;;25.26;52.35;97724.72;5038210;28;20461;-79
2022/06/23 09:00:49;;;;;;;6.67;3.30;;;25.90;69.30;;;25.43;51.46;97724.78;5030619;28;20954;-81
2022/06/23 09:03:25;;;;;;;4.80;2.77;;;26.10;69.00;;;25.40;51.71;97722.66;5030120;28;20450;-77
2022/06/23 09:06:00;;;;;;;2.73;2.43;;;26.10;68.80;;;25.19;52.02;97725.19;5042055;28;20486;-78
2022/06/23 09:08:35;;;;;;;14.13;9.07;;;25.80;68.50;;;25.78;50.72;97726.00;5028577;28;21022;-78
2022/06/23 09:11:10;;;;;;;6.17;2.90;;;26.20;68.00;;;25.58;50.67;97719.97;5024332;28;20463;-77
2022/06/23 09:13:56;;;;;;;4.37;3.07;;;26.40;67.70;;;25.70;50.83;97716.56;5033790;28;20541;-76
2022/06/23 09:16:54;;;;;;;4.30;2.87;;;26.40;67.90;;;26.06;50.15;97722.94;5019694;27;20461;-76
2022/06/23 09:19:47;;;;;;;3.83;3.10;;;26.60;67.80;;;25.56;51.29;97722.25;5025562;27;20449;-78
2022/06/23 09:23:06;;;;;;;4.40;3.20;;;26.40;67.60;;;25.51;51.28;97730.66;5036455;27;20477;-77
2022/06/23 09:25:46;;;;;;;5.03;3.03;;;26.30;68.00;;;25.12;52.18;97720.13;5025675;28;20468;-77
2022/06/23 09:28:19;;;;;;;4.53;3.83;;;26.00;68.40;;;25.69;51.54;97714.94;5022667;28;20481;-79
2022/06/23 09:31:08;;;;;;;7.80;3.50;;;26.10;68.50;;;25.67;51.31;97718.00;5022561;28;20486;-79
2022/06/23 09:33:50;;;;;;;8.30;4.43;;;26.50;67.60;;;25.76;51.15;97720.78;5035624;27;20462;-77
2022/06/23 09:36:45;;;;;;;5.13;3.43;;;26.40;67.50;;;25.64;51.83;97717.88;5020393;27;20510;-75
2022/06/23 09:40:02;;;;;;;3.50;3.10;;;26.30;68.00;;;25.27;52.66;97720.81;5022342;28;21023;-78
2022/06/23 09:43:04;;;;;;;8.07;3.13;;;26.20;68.10;;;25.89;51.31;97708.75;5027031;27;20978;-77
2022/06/23 09:45:59;;;;;;;5.53;3.07;;;26.40;68.00;;;26.18;50.02;97681.63;5024642;27;20495;-77
2022/06/23 09:49:13;;;;;;;3.83;2.83;;;26.80;67.30;;;26.77;48.83;97707.09;5015186;28;20454;-77
2022/06/23 09:52:06;;;;;;;5.20;3.20;;;27.20;66.20;;;27.06;47.67;97691.69;5016578;28;20615;-77
2022/06/23 09:55:20;;;;;;;5.13;2.93;;;27.60;65.30;;;26.87;47.32;97688.16;5018151;28;20473;-77
2022/06/23 09:58:26;;;;;;;3.57;2.87;;;27.60;64.20;;;27.04;46.37;97683.69;5029871;28;20443;-76
2022/06/23 10:01:09;;;;;;;4.03;3.40;;;27.70;63.10;;;27.14;46.41;97688.03;5023598;27;20790;-81
2022/06/23 10:04:02;;;;;;;6.57;3.90;;;27.90;63.00;;;26.99;47.30;97679.16;5033634;27;20453;-79
2022/06/23 10:06:51;;;;;;;6.33;3.20;;;27.80;63.80;;;26.16;48.40;97645.94;5020590;27;20550;-79
2022/06/23 10:09:37;;;;;;;7.50;3.37;;;27.30;63.90;;;26.41;48.93;97679.47;5017360;28;20478;-80
2022/06/23 10:12:25;;;;;;;5.70;2.90;;;27.10;64.70;;;26.27;49.68;97676.88;5024234;27;21001;-82
2022/06/23 10:15:20;;;;;;;6.50;2.90;;;27.00;64.90;;;26.30;49.42;97672.66;5018167;28;20480;-82
2022/06/23 10:18:16;;;;;;;4.20;3.00;;;27.00;64.90;;;26.21;49.90;97675.44;5017635;28;20494;-79
2022/06/23 10:21:01;;;;;;;5.37;2.97;;;26.90;65.10;;;26.91;48.18;97673.63;5020937;28;20550;-82
2022/06/23 10:24:13;;;;;;;7.10;2.80;;;27.20;65.00;;;26.75;47.92;97665.84;5021881;28;20458;-81
2022/06/23 10:26:54;;;;;;;7.07;2.83;;;27.60;63.80;;;27.42;46.19;97671.75;5038605;27;20446;-79
2022/06/23 10:29:46;;;;;;;3.77;2.87;;;28.00;63.10;;;27.41;46.77;97669.31;5016773;28;20470;-79
2022/06/23 10:32:52;;;;;;;4.40;3.00;;;28.10;62.90;;;27.02;47.28;97669.34;5017627;28;20454;-79
2022/06/23 10:35:34;;;;;;;3.20;2.60;;;27.90;62.90;;;27.04;46.89;97671.81;5017757;28;20518;-80
2022/06/23 10:38:25;;;;;;;4.80;2.90;;;27.70;62.60;;;27.28;46.40;97651.78;5019692;28;20454;-79
2022/06/23 10:41:26;;;;;;;6.30;2.20;;;27.70;62.60;;;27.24;45.51;97653.59;5020303;28;20550;-78
2022/06/23 10:44:18;;;;;;;3.73;2.30;;;27.90;61.20;;;27.49;45.27;97662.09;5021888;28;20458;-79
2022/06/23 10:46:52;;;;;;;3.77;2.00;;;28.00;61.30;;;28.00;43.46;97662.88;4966392;28;20462;-78
2022/06/23 10:49:44;;;;;;;4.53;2.30;;;28.30;60.10;;;27.28;44.57;97655.34;5033230;27;20475;-79
2022/06/23 10:52:35;;;;;;;4.13;2.40;;;28.10;59.90;;;27.50;44.27;97635.97;5021701;28;20480;-81
2022/06/23 10:55:25;;;;;;;3.90;1.90;;;28.20;60.00;;;28.37;42.35;97647.53;5022732;28;20512;-80
2022/06/23 10:58:19;;;;;;;3.73;1.97;;;28.70;59.20;;;28.41;41.69;97651.25;5017888;28;20493;-78
2022/06/23 11:01:02;;;;;;;2.40;1.87;;;29.00;58.50;;;28.30;41.89;97647.31;5019399;28;20486;-79
2022/06/23 11:03:58;;;;;;;4.17;1.80;;;28.90;58.10;;;28.50;41.69;97635.31;5014106;28;20451;-80